Aviation

Metar/Speci

station

VRMH

METAR VRMH 040400Z 05006KT 9000 FEW018 31/25 Q1013=

11 minutes ago

VRMM

METAR VRMM 040400Z 03008KT 9999 FEW018 31/26 Q1013 NOSIG=

11 minutes ago

VRMK

METAR VRMK 040400Z VRB02KT 9999 FEW018 BKN270 30/26 Q1013=

11 minutes ago

VRMT

METAR VRMT 040400Z 30006KT 9999 FEW018TCU BKN270 30/25 Q1013=

12 minutes ago

VRMG

METAR VRMG 040400Z 28008KT 9000 FEW016 FEW017CB BKN110 27/26 Q1013 CB ,N,NE TEMPO 3000 SHRA=

10 minutes ago

Synop

station

43533

AAXX 04034 43533 41459 10205 10294 20245 30131 40133 70500 81101 333 20273 58002 81819 555 10040=

1 hour ago

43555

AAXX 04034 43555 42460 70207 10296 20254 30126 40128 81100 333 20274 59001 81818 555 10455=

1 hour ago

43577

AAXX 04034 43577 42462 59902 10290 20255 30127 40129 82232 333 20259 58001 82818 85077 555 10540=

1 hour ago

43588

AAXX 04034 43588 42462 72903 10284 20265 30124 40125 81202 333 20248 58003 81818 87077 555 10481=

1 hour ago

43599

AAXX 04034 43599 41457 73205 10266 20255 30126 40128 78082 8497/ 333 20234 58003 82816 81917 87361 555 10412=

1 hour ago

Tafs

station

VRMH

TAF VRMH 032300Z 0400/0506 03005T 9000 FEW018 TEMPO 0403/0409 FEW019CB=

5 hours ago

VRMM

TAF VRMM 032300Z 0400/0506 06008KT 9999 FEW018TCU TEMPO 0400/0406 FEW018CB=

5 hours ago

VRMK

TAF VRMK 032300Z 0400/0424 03006KT 9999 FEW018TCU TEMPO 0400/0406 5000 SHRA FEW018CB=

5 hours ago

VRMT

TAF VRMT 032300Z 0400/0424 34005KT 9999 FEW018TCU SCT120 TEMPO 0400/0406 5000 TSRA FEW017CB=

5 hours ago

VRMG

TAF VRMG 032300Z 0400/0506 35005KT 9999 FEW017TCU BKN120 TEMPO 0400/0406 4000 TSRA SCT017CB=

5 hours ago

Sigmet

Flight folders

No flight folder available at the moment.